Terminal Aerodrome Forecast
Issued by NWS

Home | Current Version | Previous Version | Text Only | Print | Product List | Glossary Off
Versions: 1 2 3 4 5 6 7 8 9 10 11 12 13 14 15 16 17 18 19 20 21 22 23 24 25 26 27 28 29 30 31 32 33 34

000
FTUS45 KGGW 052300
TAFOLF
TAF
KOLF 052320Z 0600/0624 33013KT P6SM BKN060
     FM060300 33008KT P6SM SCT050 BKN060
     FM060900 VRB04KT P6SM SCT045 BKN060
     FM061200 VRB03KT 3SM HZ SCT090
     FM061800 32007KT P6SM BKN090=

USA.gov is the U.S. government's official web portal to all federal, state and local government web resources and services.